Portada
METAR-TAF:

METAR-TAF

Aeroports :

Volgograd, Rússia

latitud: 48-47N, longitud: 044-22E, altitud: 145 m

Observació

L'informe es va fer fa 18 minuts, a les 01:00 UTC
Vent 10 kt del Est/Sud-Est
Temperatura 5°C
Humitat 45%
Pressió 1006 hPa
Visibilitat 10 km o més
sense núvols per sota de 1500 mi sense presència de cumulonimbus.

METAR: URWW 300100Z 11005MPS CAVOK 05/M06 Q1006 R06/010070 NOSIG

Hora: 05:18 (01:18 UTC)

Pronòstic

L'informe es va fer fa 2 hores i 20 minuts, a les 22:58 UTC
Pronòstic vàlid del 30 a les 00 UTC al 30 a les 09 UTC
Vent 14 kt del Sud-Est amb ràfegues de 25 kt
Visibilitat 10 km o més
sense núvols per sota de 1500 mi sense presència de cumulonimbus.
Temporalment
l' 30 a les 00 UTC al 30 a les 06 UTC
Vent 12 kt del Est/Sud-Est amb ràfegues de 21 kt
Visibilitat: 5000 m
calitja

TAF: URWW 292258Z 3000/3009 13007G13MPS CAVOK TEMPO 3000/3006 11006G11MPS 5000 HZ

Observacions i pronòstics meteorològics de més de 4000 aeroports (METAR i TAF).

Les estacions disponibles són els punts grocs i vermells al mapa.

Posi el ratolí al punt desitjat per veure el nom de l'estació.

Feu clic per veure les observacions i els pronòstics meteorològics.

Per canviar el mapa: feu clic els botons verds amb una creu de color negre per apropar; al botó verd amb un guió per allunyar la imatge; o en les fletxes verdes per a mapes adjacents.


METAR-TAF: